ESSP/NRK METAR and TAF weather

Enter ICAO airport designator
Station Type Date Time Source
ESSP METAR 2021/05/11 16:20 UTC NOAA

ESSP 111620Z AUTO 06008KT 9999 NCD 17/10 Q1010


Station Type Date Time Source
ESSP Decoded METAR 2021/05/11 16:20 UTC NOAA

Norrkoping, Sweden (ESSP) 58-35N 016-09E 0M
May 11, 2021 - 12:20 PM EDT / 2021.05.11 1620 UTC
Wind: from the ENE (060 degrees) at 9 MPH (8 KT):0
Visibility: greater than 7 mile(s):0
Temperature: 62 F (17 C)
Dew Point: 50 F (10 C)
Relative Humidity: 63%
Pressure (altimeter): 29.83 in. Hg (1010 hPa)
ob: ESSP 111620Z AUTO 06008KT 9999 NCD 17/10 Q1010
cycle: 16

Station Type Date Time Source
ESSP TAF 2018/01/01 02:31 UTC NOAA

TAF ESSP 010130Z 0102/0206 16002KT 9999 BKN004 PROB40 0102/0106 4000 BR SCT004

Example: see airport list